createdAt,value
2022-08-11T00:02:29.733Z,66.02
2022-08-11T00:05:02.567Z,66.37
2022-08-11T00:07:31.524Z,66.32
2022-08-11T00:10:01.055Z,66.58
2022-08-11T00:12:30.333Z,66.42
2022-08-11T00:15:01.133Z,66.90
2022-08-11T00:17:35.688Z,67.09
2022-08-11T00:20:12.446Z,67.00
2022-08-11T00:22:46.875Z,67.39
2022-08-11T00:25:17.989Z,67.82
2022-08-11T00:27:47.968Z,67.63
2022-08-11T00:30:17.318Z,67.55
2022-08-11T00:32:54.943Z,67.57
2022-08-11T00:35:56.159Z,68.00
2022-08-11T00:38:18.347Z,67.77
2022-08-11T00:40:54.287Z,68.26
2022-08-11T00:43:38.048Z,68.03
2022-08-11T00:46:23.109Z,67.97
2022-08-11T00:49:04.858Z,67.81
2022-08-11T00:52:03.863Z,67.79
2022-08-11T00:55:17.003Z,68.01
2022-08-11T00:58:24.448Z,67.92
2022-08-11T01:01:10.533Z,67.87
2022-08-11T01:04:12.267Z,68.56
2022-08-11T01:07:07.904Z,68.57
2022-08-11T01:09:51.187Z,68.42
2022-08-11T01:12:45.433Z,68.23
2022-08-11T01:15:41.240Z,68.12
2022-08-11T01:19:10.415Z,68.27
2022-08-11T01:22:20.657Z,68.21
2022-08-11T01:25:27.724Z,68.25
2022-08-11T01:28:45.489Z,68.33
2022-08-11T01:31:41.293Z,68.21
2022-08-11T01:35:09.117Z,68.31
2022-08-11T01:38:22.919Z,68.50
2022-08-11T01:41:22.414Z,68.46
2022-08-11T01:44:31.674Z,68.48
2022-08-11T01:47:31.505Z,68.61
2022-08-11T01:50:10.937Z,68.72
2022-08-11T01:52:54.597Z,68.53
2022-08-11T01:55:29.580Z,68.75
2022-08-11T01:58:15.383Z,68.56
2022-08-11T02:00:54.772Z,69.00
2022-08-11T02:03:30.953Z,68.67
2022-08-11T02:06:26.044Z,68.85
2022-08-11T02:09:05.626Z,68.77
2022-08-11T02:11:37.567Z,68.88
2022-08-11T02:14:27.528Z,68.76
2022-08-11T02:17:14.306Z,69.01
2022-08-11T02:20:13.301Z,69.51
2022-08-11T02:23:10.299Z,69.57
2022-08-11T02:25:42.420Z,69.66
2022-08-11T02:28:20.681Z,69.61
2022-08-11T02:32:14.920Z,69.45
2022-08-11T02:34:16.085Z,69.70
2022-08-11T02:36:53.731Z,69.61
2022-08-11T02:39:24.997Z,69.80
2022-08-11T02:42:32.782Z,69.22
2022-08-11T02:45:20.539Z,69.65
2022-08-11T02:48:16.788Z,69.58
2022-08-11T02:50:55.745Z,69.70
2022-08-11T02:53:30.907Z,69.60
2022-08-11T02:56:10.097Z,69.36
2022-08-11T02:58:43.598Z,69.70
2022-08-11T03:01:18.377Z,69.56
2022-08-11T03:03:55.034Z,69.23
2022-08-11T03:06:35.782Z,69.23
2022-08-11T03:09:07.979Z,69.38
2022-08-11T03:12:11.433Z,68.88
2022-08-11T03:15:08.171Z,69.03
2022-08-11T03:17:43.149Z,68.68
2022-08-11T03:20:33.156Z,68.72
2022-08-11T03:23:19.927Z,68.67
2022-08-11T03:25:56.237Z,68.53
2022-08-11T03:28:33.501Z,68.35
2022-08-11T03:31:26.172Z,68.51
2022-08-11T03:34:08.139Z,68.67
2022-08-11T03:37:16.862Z,68.33
2022-08-11T03:39:59.031Z,68.58
2022-08-11T03:42:37.600Z,68.38
2022-08-11T03:45:25.316Z,68.11
2022-08-11T03:48:14.042Z,67.92
2022-08-11T03:51:09.481Z,67.81
2022-08-11T03:53:55.493Z,67.78
2022-08-11T03:57:05.530Z,67.49
2022-08-11T04:00:04.423Z,67.52
2022-08-11T04:03:19.986Z,67.67
2022-08-11T04:06:19.578Z,68.04
2022-08-11T04:09:23.573Z,67.41
2022-08-11T04:12:36.609Z,67.55
2022-08-11T04:16:10.800Z,67.15
2022-08-11T04:19:23.962Z,67.40
2022-08-11T04:22:28.904Z,67.10
2022-08-11T04:25:22.508Z,66.77
2022-08-11T04:28:28.656Z,66.93
2022-08-11T04:31:51.856Z,66.88
2022-08-11T04:34:37.269Z,66.72
2022-08-11T04:37:37.278Z,66.79
2022-08-11T04:40:36.278Z,66.73
2022-08-11T04:43:33.189Z,66.47
2022-08-11T04:46:42.372Z,66.65
2022-08-11T04:50:12.445Z,66.77
2022-08-11T04:53:35.817Z,66.50
2022-08-11T04:56:41.885Z,66.79
2022-08-11T05:00:07.508Z,66.65
2022-08-11T05:03:05.521Z,66.55
2022-08-11T05:05:56.867Z,66.31
2022-08-11T05:09:11.281Z,66.16
2022-08-11T05:12:03.835Z,66.08
2022-08-11T05:14:53.691Z,66.54
2022-08-11T05:17:53.434Z,66.40
2022-08-11T05:20:43.401Z,66.36
2022-08-11T05:23:30.604Z,66.24
2022-08-11T05:26:46.313Z,66.39
2022-08-11T05:29:46.517Z,66.96
2022-08-11T05:32:35.899Z,66.72
2022-08-11T05:35:07.629Z,66.97
2022-08-11T05:37:57.769Z,66.70
2022-08-11T05:40:51.471Z,67.06
2022-08-11T05:44:19.817Z,67.24
2022-08-11T05:47:01.094Z,66.63
2022-08-11T05:49:50.421Z,66.83
2022-08-11T05:52:41.840Z,66.14
2022-08-11T05:55:29.712Z,65.96
2022-08-11T05:58:00.706Z,65.78
2022-08-11T06:00:29.671Z,65.97
2022-08-11T06:03:04.193Z,65.92
2022-08-11T06:05:38.439Z,66.33
2022-08-11T06:08:13.670Z,66.14
2022-08-11T06:10:44.710Z,66.46
2022-08-11T06:13:17.655Z,65.88
2022-08-11T06:15:48.020Z,66.27
2022-08-11T06:18:18.533Z,65.78
2022-08-11T06:20:52.064Z,64.79
2022-08-11T06:23:23.304Z,63.89
2022-08-11T06:25:52.679Z,63.04
2022-08-11T06:28:30.693Z,61.22
2022-08-11T06:31:00.466Z,59.55
2022-08-11T06:33:39.819Z,57.75
2022-08-11T06:36:15.129Z,56.22
2022-08-11T06:38:58.196Z,54.38
2022-08-11T06:41:31.995Z,52.42
2022-08-11T06:44:11.959Z,100.00
2022-08-11T06:46:42.897Z,100.00
2022-08-11T06:49:28.978Z,52.42
2022-08-11T06:52:01.773Z,47.29
2022-08-11T06:54:33.867Z,46.90
2022-08-11T06:57:30.359Z,45.64
2022-08-11T07:00:18.051Z,45.21
2022-08-11T07:02:53.408Z,44.55
2022-08-11T07:05:29.001Z,44.06
2022-08-11T07:08:44.449Z,42.40
2022-08-11T07:11:46.348Z,42.05
2022-08-11T07:14:38.579Z,41.91
2022-08-11T07:17:11.382Z,40.68
2022-08-11T07:20:01.590Z,40.52
2022-08-11T07:22:51.488Z,39.49
2022-08-11T07:25:34.328Z,38.65
2022-08-11T07:28:22.908Z,38.56
2022-08-11T07:30:58.630Z,37.76
2022-08-11T07:34:08.269Z,37.20
2022-08-11T07:36:21.500Z,37.07
2022-08-11T07:39:00.010Z,36.87
2022-08-11T07:41:32.855Z,36.22
2022-08-11T07:44:09.397Z,36.14
2022-08-11T07:47:07.853Z,35.55
2022-08-11T07:49:55.980Z,35.03
2022-08-11T07:52:34.007Z,34.95
2022-08-11T07:55:08.454Z,34.54
2022-08-11T07:58:15.535Z,34.75
2022-08-11T08:01:09.892Z,34.75
2022-08-11T08:03:57.515Z,34.53
2022-08-11T08:06:44.751Z,34.25
2022-08-11T08:09:31.363Z,35.03
2022-08-11T08:12:20.867Z,35.15
2022-08-11T08:15:06.726Z,34.92
2022-08-11T08:18:09.841Z,34.70
2022-08-11T08:20:47.133Z,35.02
2022-08-11T08:23:15.929Z,35.04
2022-08-11T08:25:46.975Z,35.75
2022-08-11T08:28:21.946Z,35.57
2022-08-11T08:30:51.788Z,33.59
2022-08-11T08:33:23.179Z,31.46
2022-08-11T08:36:11.933Z,32.16
2022-08-11T08:38:48.510Z,32.16
2022-08-11T08:41:21.218Z,31.14
2022-08-11T08:43:59.915Z,31.62
2022-08-11T08:46:47.372Z,33.23
2022-08-11T08:49:18.398Z,33.93
2022-08-11T08:52:01.019Z,34.26
2022-08-11T08:54:43.503Z,33.61
2022-08-11T08:57:14.209Z,33.24
2022-08-11T08:59:51.482Z,33.21
2022-08-11T09:02:34.786Z,33.00
2022-08-11T09:05:04.245Z,32.49
2022-08-11T09:07:39.510Z,32.49
2022-08-11T09:10:11.053Z,30.80
2022-08-11T09:12:42.613Z,29.99
2022-08-11T09:15:19.308Z,29.58
2022-08-11T09:17:50.177Z,29.81
2022-08-11T09:20:22.801Z,28.79
2022-08-11T09:26:22.339Z,28.90
2022-08-11T09:29:00.321Z,28.66
2022-08-11T09:31:38.910Z,28.10
2022-08-11T09:34:09.269Z,27.98
2022-08-11T09:36:56.925Z,27.76
2022-08-11T09:39:43.896Z,28.13
2022-08-11T09:42:16.403Z,27.21
2022-08-11T09:44:51.003Z,26.53
2022-08-11T09:47:24.603Z,26.00
2022-08-11T09:50:00.491Z,25.14
2022-08-11T09:52:33.389Z,25.18
2022-08-11T09:55:03.004Z,25.32
2022-08-11T09:57:48.629Z,24.41
2022-08-11T10:00:18.053Z,23.93
2022-08-11T10:02:50.196Z,23.24
2022-08-11T10:05:37.947Z,22.66
2022-08-11T10:08:08.575Z,23.49
2022-08-11T10:10:38.657Z,22.52
2022-08-11T10:14:31.188Z,22.56
2022-08-11T10:16:15.215Z,22.14
2022-08-11T10:18:53.040Z,21.13
2022-08-11T10:21:30.647Z,20.08
2022-08-11T10:24:19.676Z,20.16
2022-08-11T10:27:00.223Z,21.25
2022-08-11T10:29:49.660Z,20.49
2022-08-11T10:32:49.383Z,21.41
2022-08-11T10:35:30.899Z,20.86
2022-08-11T10:38:06.506Z,21.14
2022-08-11T10:40:40.168Z,21.01
2022-08-11T10:43:13.541Z,21.13
2022-08-11T10:46:03.000Z,20.30
2022-08-11T10:48:36.748Z,20.50
2022-08-11T10:51:48.000Z,20.99
2022-08-11T10:54:24.391Z,21.19
2022-08-11T10:57:13.101Z,21.14
2022-08-11T10:59:43.527Z,22.34
2022-08-11T11:02:15.400Z,22.48
2022-08-11T11:04:59.309Z,22.53
2022-08-11T11:07:41.551Z,22.78
2022-08-11T11:10:13.157Z,20.48
2022-08-11T11:13:02.355Z,18.83
2022-08-11T11:15:50.392Z,19.20
2022-08-11T11:18:22.649Z,20.20
2022-08-11T11:20:57.892Z,20.42
2022-08-11T11:23:34.581Z,20.53
2022-08-11T11:26:28.037Z,19.59
2022-08-11T11:29:20.624Z,19.12
2022-08-11T11:31:58.635Z,19.00
2022-08-11T11:34:52.944Z,18.68
2022-08-11T11:37:24.441Z,17.81
2022-08-11T11:39:55.506Z,18.15
2022-08-11T11:42:24.988Z,18.41
2022-08-11T11:44:56.065Z,18.18
2022-08-11T11:47:26.329Z,17.96
2022-08-11T11:49:55.269Z,18.05
2022-08-11T11:52:25.146Z,17.27
2022-08-11T11:54:57.607Z,17.91
2022-08-11T11:57:59.311Z,17.81
2022-08-11T12:00:47.852Z,18.41
2022-08-11T12:03:19.096Z,18.44
2022-08-11T12:05:48.233Z,16.86
2022-08-11T12:08:18.061Z,16.49
2022-08-11T12:10:50.921Z,16.71
2022-08-11T12:13:37.941Z,17.03
2022-08-11T12:16:34.728Z,17.82
2022-08-11T12:18:58.181Z,18.19
2022-08-11T12:21:28.827Z,17.90
2022-08-11T12:24:16.556Z,18.23
2022-08-11T12:27:16.935Z,17.76
2022-08-11T12:29:52.775Z,17.25
2022-08-11T12:32:25.687Z,17.27
2022-08-11T12:34:58.134Z,17.33
2022-08-11T12:37:31.478Z,17.65
2022-08-11T12:40:43.152Z,17.25
2022-08-11T12:43:38.913Z,17.60
2022-08-11T12:46:15.562Z,17.68
2022-08-11T12:49:04.321Z,17.28
2022-08-11T12:52:13.964Z,16.56
2022-08-11T12:54:59.096Z,17.36
2022-08-11T12:57:47.784Z,17.12
2022-08-11T13:00:36.975Z,16.59
2022-08-11T13:03:26.313Z,16.54
2022-08-11T13:05:57.650Z,17.36
2022-08-11T13:08:27.977Z,16.66
2022-08-11T13:11:15.936Z,16.15
2022-08-11T13:13:55.313Z,16.19
2022-08-11T13:16:31.047Z,16.46
2022-08-11T13:19:01.333Z,16.52
2022-08-11T13:21:31.413Z,16.51
2022-08-11T13:24:02.992Z,16.90
2022-08-11T13:26:48.609Z,16.78
2022-08-11T13:29:23.254Z,17.46
2022-08-11T13:31:54.996Z,17.73
2022-08-11T13:34:26.904Z,17.87
2022-08-11T13:36:58.232Z,18.10
2022-08-11T13:39:31.439Z,18.80
2022-08-11T13:42:01.530Z,18.22
2022-08-11T13:44:31.592Z,18.75
2022-08-11T13:47:04.512Z,17.56
2022-08-11T13:49:39.877Z,17.44
2022-08-11T13:52:13.295Z,17.93
2022-08-11T13:54:48.106Z,17.85
2022-08-11T13:58:07.243Z,18.92
2022-08-11T14:00:12.942Z,19.05
2022-08-11T14:02:55.261Z,19.25
2022-08-11T14:05:28.103Z,19.87
2022-08-11T14:08:01.515Z,19.90
2022-08-11T14:10:33.152Z,20.29
2022-08-11T14:13:22.026Z,20.01
2022-08-11T14:15:53.426Z,20.72
2022-08-11T14:18:27.271Z,20.21
2022-08-11T14:21:15.745Z,20.06
2022-08-11T14:23:47.083Z,19.99
2022-08-11T14:26:27.838Z,20.18
2022-08-11T14:28:59.774Z,21.55
2022-08-11T14:31:30.117Z,21.66
2022-08-11T14:34:03.605Z,21.64
2022-08-11T14:36:35.125Z,22.41
2022-08-11T14:39:08.445Z,22.96
2022-08-11T14:42:07.562Z,22.30
2022-08-11T14:45:16.941Z,22.39
2022-08-11T14:47:49.121Z,22.59
2022-08-11T14:50:23.388Z,23.14
2022-08-11T14:52:55.217Z,22.39
2022-08-11T14:55:43.046Z,22.62
2022-08-11T14:58:12.543Z,22.91
2022-08-11T15:00:44.254Z,23.96
2022-08-11T15:03:14.286Z,23.92
2022-08-11T15:05:56.428Z,23.18
2022-08-11T15:08:49.213Z,23.84
2022-08-11T15:11:37.009Z,24.93
2022-08-11T15:14:07.906Z,25.02
2022-08-11T15:16:55.918Z,26.19
2022-08-11T15:19:40.227Z,26.51
2022-08-11T15:22:29.243Z,26.81
2022-08-11T15:24:59.876Z,26.76
2022-08-11T15:27:48.714Z,27.46
2022-08-11T15:30:35.033Z,28.42
2022-08-11T15:33:26.978Z,28.31
2022-08-11T15:36:15.311Z,29.44
2022-08-11T15:38:55.006Z,29.77
2022-08-11T15:41:45.876Z,30.62
2022-08-11T15:45:01.663Z,30.91
2022-08-11T15:47:35.994Z,30.43
2022-08-11T15:50:11.155Z,30.33
2022-08-11T15:52:48.414Z,31.57
2022-08-11T15:55:20.342Z,32.29
2022-08-11T15:58:08.852Z,32.54
2022-08-11T16:00:59.035Z,32.65
2022-08-11T16:04:08.207Z,33.51
2022-08-11T16:06:47.786Z,33.29
2022-08-11T16:09:21.770Z,33.54
2022-08-11T16:11:53.626Z,33.38
2022-08-11T16:14:41.403Z,33.94
2022-08-11T16:17:12.623Z,34.28
2022-08-11T16:19:44.033Z,33.77
2022-08-11T16:22:16.262Z,33.75
2022-08-11T16:27:04.683Z,35.08
2022-08-11T16:27:40.196Z,35.17
2022-08-11T16:30:10.403Z,35.27
2022-08-11T16:32:41.786Z,35.88
2022-08-11T16:35:30.106Z,35.68
2022-08-11T16:38:16.914Z,35.23
2022-08-11T16:40:48.154Z,36.32
2022-08-11T16:43:38.711Z,36.63
2022-08-11T16:46:26.527Z,36.21
2022-08-11T16:48:55.765Z,36.57
2022-08-11T16:51:24.790Z,36.23
2022-08-11T16:54:04.264Z,36.43
2022-08-11T16:56:39.155Z,35.85
2022-08-11T16:59:17.695Z,36.98
2022-08-11T17:01:53.493Z,37.19
2022-08-11T17:05:04.026Z,37.53
2022-08-11T17:07:49.884Z,38.60
2022-08-11T17:10:52.754Z,38.58
2022-08-11T17:13:32.942Z,38.90
2022-08-11T17:16:08.800Z,39.33
2022-08-11T17:18:50.258Z,40.07
2022-08-11T17:21:27.472Z,40.64
2022-08-11T17:23:59.410Z,41.04
2022-08-11T17:27:02.911Z,41.12
2022-08-11T17:29:54.347Z,41.37
2022-08-11T17:32:55.816Z,42.46
2022-08-11T17:35:32.992Z,42.40
2022-08-11T17:38:05.823Z,42.17
2022-08-11T17:40:38.786Z,43.24
2022-08-11T17:43:27.382Z,42.98
2022-08-11T17:46:14.799Z,43.62
2022-08-11T17:48:47.818Z,43.64
2022-08-11T17:51:35.981Z,43.75
2022-08-11T17:54:24.288Z,44.47
2022-08-11T17:57:21.087Z,44.90
2022-08-11T17:59:56.923Z,45.41
2022-08-11T18:02:47.420Z,45.26
2022-08-11T18:05:19.906Z,45.39
2022-08-11T18:08:09.445Z,46.09
2022-08-11T18:10:55.930Z,46.14
2022-08-11T18:13:44.037Z,46.52
2022-08-11T18:16:30.577Z,47.15
2022-08-11T18:19:16.750Z,47.34
2022-08-11T18:22:15.679Z,48.14
2022-08-11T18:25:07.370Z,48.76
2022-08-11T18:27:54.698Z,49.16
2022-08-11T18:30:42.230Z,49.53
2022-08-11T18:33:56.869Z,49.85
2022-08-11T18:36:39.947Z,50.35
2022-08-11T18:39:31.138Z,50.55
2022-08-11T18:42:29.385Z,50.52
2022-08-11T18:45:18.905Z,50.78
2022-08-11T18:48:09.293Z,50.90
2022-08-11T18:51:30.571Z,50.97
2022-08-11T18:54:10.008Z,51.35
2022-08-11T18:56:57.714Z,51.93
2022-08-11T18:59:45.495Z,52.10
2022-08-11T19:02:48.267Z,52.19
2022-08-11T19:06:35.621Z,52.26
2022-08-11T19:08:47.039Z,52.67
2022-08-11T19:11:33.966Z,52.92
2022-08-11T19:14:23.580Z,53.09
2022-08-11T19:17:10.384Z,53.64
2022-08-11T19:19:59.347Z,53.68
2022-08-11T19:22:47.950Z,54.08
2022-08-11T19:25:35.296Z,53.96
2022-08-11T19:28:25.206Z,54.34
2022-08-11T19:31:14.458Z,54.37
2022-08-11T19:34:10.373Z,54.57
2022-08-11T19:36:57.273Z,54.54
2022-08-11T19:39:45.474Z,54.33
2022-08-11T19:42:33.117Z,54.60
2022-08-11T19:45:20.786Z,54.67
2022-08-11T19:48:30.847Z,55.25
2022-08-11T19:51:16.386Z,55.44
2022-08-11T19:54:02.544Z,55.51
2022-08-11T19:56:48.533Z,55.85
2022-08-11T19:59:37.343Z,56.18
2022-08-11T20:02:24.553Z,56.42
2022-08-11T20:05:11.857Z,56.42
2022-08-11T20:07:58.837Z,57.09
2022-08-11T20:10:46.549Z,56.81
2022-08-11T20:13:33.094Z,57.67
2022-08-11T20:16:21.435Z,57.79
2022-08-11T20:19:09.732Z,58.15
2022-08-11T20:21:58.644Z,58.03
2022-08-11T20:24:44.432Z,58.43
2022-08-11T20:27:31.416Z,58.29
2022-08-11T20:30:20.241Z,58.83
2022-08-11T20:33:06.903Z,58.72
2022-08-11T20:35:54.496Z,58.98
2022-08-11T20:38:42.986Z,58.50
2022-08-11T20:41:30.667Z,58.19
2022-08-11T20:44:18.039Z,58.49
2022-08-11T20:47:06.494Z,57.50
2022-08-11T20:50:03.116Z,57.38
2022-08-11T20:52:50.116Z,58.02
2022-08-11T20:55:51.491Z,57.96
2022-08-11T21:01:47.228Z,59.09
2022-08-11T21:04:53.994Z,59.16
2022-08-11T21:07:55.130Z,58.37
2022-08-11T21:10:43.560Z,58.48
2022-08-11T21:13:33.384Z,58.54
2022-08-11T21:16:26.037Z,58.64
2022-08-11T21:19:18.084Z,59.32
2022-08-11T21:22:06.462Z,59.88
2022-08-11T21:24:55.037Z,59.92
2022-08-11T21:27:43.547Z,60.22
2022-08-11T21:30:29.879Z,60.55
2022-08-11T21:33:15.696Z,60.47
2022-08-11T21:36:01.642Z,60.82
2022-08-11T21:38:49.941Z,60.69
2022-08-11T21:41:36.950Z,61.19
2022-08-11T21:44:25.125Z,60.64
2022-08-11T21:47:12.445Z,60.86
2022-08-11T21:49:59.438Z,61.27
2022-08-11T21:52:46.396Z,61.43
2022-08-11T21:55:33.317Z,61.60
2022-08-11T21:58:20.290Z,61.69
2022-08-11T22:01:07.882Z,61.64
2022-08-11T22:03:54.449Z,61.41
2022-08-11T22:06:40.804Z,60.94
2022-08-11T22:09:27.023Z,60.87
2022-08-11T22:12:33.627Z,60.73
2022-08-11T22:15:18.538Z,61.11
2022-08-11T22:18:05.916Z,61.25
2022-08-11T22:20:53.520Z,61.30
2022-08-11T22:23:40.463Z,61.05
2022-08-11T22:26:26.503Z,61.03
2022-08-11T22:29:12.586Z,60.88
2022-08-11T22:31:59.437Z,60.97
2022-08-11T22:34:53.103Z,60.80
2022-08-11T22:37:40.653Z,61.03
2022-08-11T22:40:29.055Z,60.81
2022-08-11T22:43:14.928Z,61.42
2022-08-11T22:46:00.780Z,61.46
2022-08-11T22:48:49.124Z,61.56
2022-08-11T22:51:38.531Z,61.73
2022-08-11T22:54:27.093Z,62.16
2022-08-11T22:57:13.027Z,62.65
2022-08-11T22:59:59.475Z,62.20
2022-08-11T23:02:46.963Z,62.10
2022-08-11T23:05:33.752Z,61.77
2022-08-11T23:08:21.988Z,61.43
2022-08-11T23:11:09.301Z,61.61
2022-08-11T23:13:55.304Z,61.60
2022-08-11T23:16:41.199Z,61.42
2022-08-11T23:20:06.449Z,61.47
2022-08-11T23:22:36.954Z,61.68
2022-08-11T23:25:37.712Z,61.51
2022-08-11T23:28:24.513Z,61.54
2022-08-11T23:31:13.653Z,61.96
2022-08-11T23:34:04.196Z,61.59
2022-08-11T23:36:50.082Z,62.08
2022-08-11T23:39:36.270Z,62.13
2022-08-11T23:42:24.138Z,62.21
2022-08-11T23:45:10.120Z,62.65
2022-08-11T23:47:57.483Z,62.62
2022-08-11T23:50:43.951Z,62.88
2022-08-11T23:53:31.040Z,62.85
2022-08-11T23:56:17.004Z,63.16
2022-08-11T23:59:10.589Z,63.14
